Private Wetterstation Wechselburg
Wetterdaten: Woche 04.07.11 - 10.07.11 (KW27)
Datum Zeit Temp. +2m Bodentemp. Temp.+5cm Temp. Wind Windchill X Diff Temp. Feuchte +2m Feuchte +5cm Sonnenschein Luftdruck Regen Wind Richtung Sonnenschein UV Taupunkt Windchill Windben
04.07.2011 00:00 13,1 C 17,6 C 12,6 C 13,0 C 12,8 C 0,0 C 93 % 96 % 0 % 1010,6 hPa 0,0 l/m 3,6 km/h (1 Bft) W-SW 0,00 h 0,0 UV-I 12,0 C 12,8 C 0,0 km/h (0 Bft)
04.07.2011 01:00 13,0 C 17,6 C 12,6 C 12,9 C 12,7 C 0,0 C 93 % 96 % 0 % 1010,6 hPa 0,0 l/m 4,4 km/h (1 Bft) SW 0,00 h 0,0 UV-I 11,9 C 12,7 C 0,0 km/h (0 Bft)
04.07.2011 02:00 12,9 C 17,6 C 12,5 C 12,8 C 12,6 C 0,0 C 93 % 96 % 0 % 1010,4 hPa 0,7 l/m 4,4 km/h (1 Bft) SW 0,00 h 0,0 UV-I 11,8 C 12,6 C 0,0 km/h (0 Bft)
04.07.2011 03:00 12,8 C 17,6 C 12,4 C 12,7 C 12,5 C 0,0 C 93 % 96 % 0 % 1010,3 hPa 0,0 l/m 4,7 km/h (1 Bft) SW 0,00 h 0,0 UV-I 11,7 C 12,5 C 0,0 km/h (0 Bft)
04.07.2011 04:00 12,9 C 17,6 C 12,4 C 12,8 C 12,6 C 0,0 C 93 % 96 % 0 % 1010,4 hPa 0,0 l/m 3,7 km/h (1 Bft) W-SW 0,00 h 0,0 UV-I 11,8 C 12,6 C 0,0 km/h (0 Bft)
04.07.2011 05:00 12,8 C 17,6 C 12,4 C 12,8 C 12,6 C 0,0 C 93 % 96 % 0 % 1010,5 hPa 0,7 l/m 3,3 km/h (1 Bft) W-SW 0,00 h 0,0 UV-I 11,7 C 12,6 C 0,0 km/h (0 Bft)
04.07.2011 06:00 12,9 C 17,6 C 12,6 C 12,9 C 12,8 C 0,0 C 93 % 96 % 0 % 1010,4 hPa 0,0 l/m 4,5 km/h (1 Bft) W-SW 0,00 h 0,0 UV-I 11,8 C 12,8 C 0,0 km/h (0 Bft)
04.07.2011 07:00 13,1 C 17,6 C 12,7 C 13,0 C 12,9 C 0,0 C 93 % 96 % 0 % 1010,4 hPa 0,0 l/m 4,8 km/h (1 Bft) W-SW 0,00 h 0,0 UV-I 12,0 C 12,9 C 0,0 km/h (0 Bft)
04.07.2011 08:00 13,2 C 17,6 C 12,9 C 13,4 C 13,4 C 0,2 C 93 % 96 % 4 % 1010,6 hPa 0,0 l/m 4,5 km/h (1 Bft) W-SW 0,00 h 0,1 UV-I 12,1 C 13,4 C 0,0 km/h (0 Bft)
04.07.2011 09:00 13,4 C 17,6 C 13,1 C 13,6 C 13,6 C 0,2 C 93 % 96 % 5 % 1011,1 hPa 0,0 l/m 4,3 km/h (1 Bft) SW 0,00 h 0,2 UV-I 12,4 C 13,6 C 0,0 km/h (0 Bft)
04.07.2011 10:00 13,7 C 17,6 C 13,4 C 14,2 C 14,2 C 0,5 C 93 % 96 % 12 % 1011,2 hPa 0,0 l/m 5,8 km/h (2 Bft) W-SW 0,00 h 0,4 UV-I 12,6 C 14,2 C 0,0 km/h (0 Bft)
04.07.2011 11:00 13,9 C 17,6 C 13,6 C 14,2 C 14,2 C 0,4 C 93 % 96 % 10 % 1011,5 hPa 0,0 l/m 5,2 km/h (1 Bft) W-SW 0,00 h 0,2 UV-I 12,8 C 14,2 C 0,0 km/h (0 Bft)
04.07.2011 12:00 14,0 C 17,6 C 13,9 C 14,4 C 14,4 C 0,4 C 93 % 96 % 10 % 1011,9 hPa 2,1 l/m 4,4 km/h (1 Bft) W-SW 0,00 h 0,2 UV-I 12,9 C 14,4 C 0,0 km/h (0 Bft)
04.07.2011 13:00 14,2 C 17,7 C 14,1 C 14,7 C 14,7 C 0,5 C 94 % 96 % 12 % 1012,1 hPa 1,4 l/m 3,1 km/h (1 Bft) SW 0,00 h 0,4 UV-I 13,2 C 14,7 C 0,0 km/h (0 Bft)
04.07.2011 14:00 14,8 C 17,7 C 14,7 C 15,4 C 15,4 C 0,6 C 94 % 96 % 17 % 1011,9 hPa 0,7 l/m 2,6 km/h (1 Bft) SW 0,00 h 0,4 UV-I 13,8 C 15,4 C 0,0 km/h (0 Bft)
04.07.2011 15:00 15,0 C 17,8 C 14,9 C 15,7 C 15,7 C 0,7 C 94 % 96 % 19 % 1012,0 hPa 1,4 l/m 2,6 km/h (1 Bft) SW 0,00 h 0,3 UV-I 14,0 C 15,7 C 0,0 km/h (0 Bft)
04.07.2011 16:00 15,2 C 17,8 C 15,0 C 16,7 C 16,7 C 1,4 C 94 % 96 % 38 % 1012,2 hPa 0,0 l/m 3,7 km/h (1 Bft) W 0,00 h 0,4 UV-I 14,2 C 16,7 C 0,0 km/h (0 Bft)
04.07.2011 17:00 15,2 C 17,8 C 14,8 C 15,8 C 15,8 C 0,6 C 93 % 96 % 16 % 1012,3 hPa 0,0 l/m 3,5 km/h (1 Bft) SW 0,00 h 0,1 UV-I 14,1 C 15,8 C 0,0 km/h (0 Bft)
04.07.2011 18:00 15,2 C 17,9 C 14,8 C 15,7 C 15,7 C 0,5 C 93 % 96 % 13 % 1012,3 hPa 0,0 l/m 2,7 km/h (1 Bft) S-SW 0,00 h 0,1 UV-I 14,1 C 15,7 C 0,0 km/h (0 Bft)
04.07.2011 19:00 15,1 C 18,0 C 14,8 C 15,2 C 15,2 C 0,1 C 93 % 96 % 4 % 1012,3 hPa 0,0 l/m 2,0 km/h (1 Bft) S 0,00 h 0,0 UV-I 14,0 C 15,2 C 0,0 km/h (0 Bft)
04.07.2011 20:00 15,1 C 18,1 C 14,7 C 15,1 C 15,0 C 0,0 C 93 % 96 % 0 % 1012,3 hPa 0,0 l/m 1,5 km/h (1 Bft) W-SW 0,00 h 0,0 UV-I 13,9 C 15,0 C 0,0 km/h (0 Bft)
04.07.2011 21:00 14,9 C 18,2 C 14,7 C 14,9 C 14,9 C 0,0 C 93 % 96 % 0 % 1012,6 hPa 0,7 l/m 1,9 km/h (1 Bft) SW 0,00 h 0,0 UV-I 13,8 C 14,9 C 0,0 km/h (0 Bft)
04.07.2011 22:00 14,9 C 18,2 C 14,5 C 14,9 C 14,8 C 0,0 C 93 % 96 % 0 % 1012,5 hPa 0,0 l/m 2,7 km/h (1 Bft) S 0,00 h 0,0 UV-I 13,8 C 14,8 C 0,0 km/h (0 Bft)
04.07.2011 23:00 14,8 C 18,2 C 14,4 C 14,8 C 14,7 C 0,0 C 94 % 96 % 0 % 1012,4 hPa 0,7 l/m 3,2 km/h (1 Bft) SW 0,00 h 0,0 UV-I 13,8 C 14,7 C 0,0 km/h (0 Bft)
05.07.2011 00:00 14,7 C 18,3 C 14,4 C 14,7 C 14,6 C 0,0 C 93 % 96 % 0 % 1012,3 hPa 0,0 l/m 3,2 km/h (1 Bft) SW 0,00 h 0,0 UV-I 13,7 C 14,6 C 0,0 km/h (0 Bft)
05.07.2011 01:00 14,7 C 18,3 C 14,3 C 14,6 C 14,6 C 0,0 C 94 % 96 % 0 % 1012,1 hPa 0,0 l/m 3,1 km/h (1 Bft) W-SW 0,00 h 0,0 UV-I 13,7 C 14,6 C 0,0 km/h (0 Bft)
05.07.2011 02:00 14,5 C 18,3 C 14,1 C 14,4 C 14,3 C 0,0 C 93 % 96 % 0 % 1012,0 hPa 0,0 l/m 2,7 km/h (1 Bft) S 0,00 h 0,0 UV-I 13,5 C 14,3 C 0,0 km/h (0 Bft)
05.07.2011 03:00 14,4 C 18,3 C 13,9 C 14,3 C 14,1 C 0,0 C 93 % 96 % 0 % 1011,9 hPa 0,0 l/m 2,1 km/h (1 Bft) W-SW 0,00 h 0,0 UV-I 13,3 C 14,1 C 0,0 km/h (0 Bft)
05.07.2011 04:00 14,3 C 18,3 C 13,9 C 14,2 C 14,0 C 0,0 C 93 % 96 % 0 % 1011,8 hPa 1,4 l/m 0,9 km/h (0 Bft) N 0,00 h 0,0 UV-I 13,2 C 14,0 C 0,0 km/h (0 Bft)
05.07.2011 05:00 14,3 C 18,3 C 13,7 C 14,2 C 13,9 C 0,0 C 93 % 96 % 0 % 1011,9 hPa 0,0 l/m 0,8 km/h (0 Bft) S 0,00 h 0,0 UV-I 13,1 C 13,9 C 0,0 km/h (0 Bft)
05.07.2011 06:00 14,3 C 18,3 C 13,7 C 14,2 C 14,0 C 0,0 C 93 % 96 % 0 % 1011,8 hPa 0,7 l/m 0,4 km/h (0 Bft) N 0,00 h 0,0 UV-I 13,2 C 14,0 C 0,0 km/h (0 Bft)
05.07.2011 07:00 14,3 C 18,3 C 13,7 C 14,2 C 14,1 C 0,0 C 93 % 96 % 0 % 1011,8 hPa 1,4 l/m 0,8 km/h (0 Bft) W-SW 0,00 h 0,0 UV-I 13,2 C 14,1 C 0,0 km/h (0 Bft)
05.07.2011 08:00 14,4 C 18,3 C 13,9 C 14,4 C 14,4 C 0,0 C 93 % 96 % 1 % 1012,1 hPa 0,7 l/m 1,4 km/h (1 Bft) SW 0,00 h 0,1 UV-I 13,3 C 14,4 C 0,5 km/h (0 Bft)
05.07.2011 09:00 14,6 C 18,2 C 14,1 C 15,0 C 15,0 C 0,4 C 93 % 96 % 12 % 1012,3 hPa 0,7 l/m 1,1 km/h (1 Bft) W-SW 0,00 h 0,3 UV-I 13,4 C 15,0 C 1,3 km/h (1 Bft)
05.07.2011 10:00 14,9 C 18,2 C 14,5 C 15,7 C 15,7 C 0,8 C 93 % 96 % 21 % 1012,4 hPa 0,0 l/m 1,5 km/h (1 Bft) W-SW 0,00 h 0,4 UV-I 13,7 C 15,7 C 1,5 km/h (1 Bft)
05.07.2011 11:00 15,4 C 18,2 C 15,0 C 17,1 C 17,1 C 1,7 C 93 % 96 % 44 % 1012,5 hPa 0,0 l/m 1,0 km/h (0 Bft) SW 0,00 h 0,8 UV-I 14,3 C 17,1 C 1,2 km/h (1 Bft)
05.07.2011 12:00 15,8 C 18,2 C 15,3 C 18,3 C 18,3 C 2,5 C 93 % 96 % 65 % 1012,4 hPa 0,0 l/m 2,0 km/h (1 Bft) W-SW 0,00 h 1,1 UV-I 14,7 C 18,3 C 2,4 km/h (1 Bft)
05.07.2011 13:00 15,9 C 18,2 C 15,5 C 17,5 C 17,5 C 1,6 C 92 % 96 % 42 % 1012,5 hPa 0,0 l/m 2,1 km/h (1 Bft) W-SW 0,00 h 0,5 UV-I 14,6 C 17,5 C 2,4 km/h (1 Bft)
05.07.2011 14:00 16,6 C 18,1 C 16,0 C 19,8 C 19,8 C 3,2 C 92 % 96 % 74 % 1012,3 hPa 0,0 l/m 2,8 km/h (1 Bft) W-SW 0,42 h 1,3 UV-I 15,2 C 19,8 C 2,5 km/h (1 Bft)
05.07.2011 15:00 17,4 C 18,1 C 16,7 C 21,0 C 21,0 C 3,6 C 89 % 96 % 93 % 1012,0 hPa 0,0 l/m 3,4 km/h (1 Bft) SW 0,83 h 1,3 UV-I 15,5 C 21,0 C 3,9 km/h (1 Bft)
05.07.2011 16:00 18,0 C 18,1 C 17,4 C 20,9 C 20,9 C 2,9 C 86 % 95 % 76 % 1011,6 hPa 0,0 l/m 3,4 km/h (1 Bft) SW 0,23 h 1,2 UV-I 15,7 C 20,9 C 3,2 km/h (1 Bft)
05.07.2011 17:00 19,7 C 18,2 C 19,3 C 24,2 C 24,2 C 4,5 C 81 % 93 % 100 % 1011,4 hPa 0,0 l/m 3,3 km/h (1 Bft) W-SW 1,00 h 0,9 UV-I 16,4 C 24,2 C 3,5 km/h (1 Bft)
05.07.2011 18:00 20,8 C 18,3 C 19,5 C 24,8 C 24,8 C 4,0 C 76 % 87 % 97 % 1010,9 hPa 0,0 l/m 1,9 km/h (1 Bft) SW 0,92 h 0,3 UV-I 16,3 C 24,8 C 1,6 km/h (1 Bft)
05.07.2011 19:00 19,7 C 18,4 C 18,4 C 20,6 C 20,6 C 0,9 C 77 % 87 % 23 % 1010,7 hPa 0,0 l/m 0,8 km/h (0 Bft) W-SW 0,00 h 0,1 UV-I 15,6 C 20,6 C 1,0 km/h (0 Bft)
05.07.2011 20:00 19,6 C 18,6 C 18,0 C 20,5 C 20,5 C 1,0 C 79 % 87 % 25 % 1010,4 hPa 0,0 l/m 0,0 km/h (0 Bft) N 0,42 h 0,0 UV-I 15,8 C 20,5 C 0,0 km/h (0 Bft)
05.07.2011 21:00 18,2 C 18,9 C 16,8 C 17,6 C 16,5 C 0,0 C 84 % 90 % 0 % 1010,4 hPa 0,0 l/m 0,0 km/h (0 Bft) N 0,00 h 0,0 UV-I 15,4 C 16,5 C 0,0 km/h (0 Bft)
05.07.2011 22:00 17,0 C 19,1 C 15,7 C 16,3 C 14,9 C 0,0 C 87 % 92 % 0 % 1010,6 hPa 0,0 l/m 0,0 km/h (0 Bft) N 0,00 h 0,0 UV-I 14,8 C 14,9 C 0,0 km/h (0 Bft)
05.07.2011 23:00 16,3 C 19,1 C 15,1 C 15,8 C 14,7 C 0,0 C 88 % 93 % 0 % 1009,9 hPa 0,0 l/m 0,1 km/h (0 Bft) N 0,00 h 0,0 UV-I 14,4 C 14,7 C 0,2 km/h (0 Bft)
06.07.2011 00:00 16,0 C 19,0 C 14,9 C 15,5 C 14,5 C 0,0 C 89 % 93 % 0 % 1009,6 hPa 0,0 l/m 0,0 km/h (0 Bft) N 0,00 h 0,0 UV-I 14,2 C 14,5 C 0,0 km/h (0 Bft)
06.07.2011 01:00 15,4 C 19,0 C 14,4 C 14,9 C 14,0 C 0,0 C 90 % 94 % 0 % 1009,3 hPa 0,0 l/m 0,0 km/h (0 Bft) N 0,00 h 0,0 UV-I 13,7 C 14,0 C 0,0 km/h (0 Bft)
06.07.2011 02:00 14,8 C 19,1 C 13,8 C 14,3 C 13,1 C 0,0 C 90 % 94 % 0 % 1009,0 hPa 0,0 l/m 0,0 km/h (0 Bft) N 0,00 h 0,0 UV-I 13,2 C 13,1 C 0,0 km/h (0 Bft)
06.07.2011 03:00 14,2 C 19,0 C 13,2 C 13,6 C 12,2 C 0,0 C 89 % 93 % 0 % 1008,5 hPa 0,0 l/m 0,0 km/h (0 Bft) N 0,00 h 0,0 UV-I 12,5 C 12,2 C 0,0 km/h (0 Bft)
06.07.2011 04:00 13,6 C 18,9 C 12,6 C 12,9 C 11,4 C 0,0 C 89 % 93 % 0 % 1008,6 hPa 0,0 l/m 0,0 km/h (0 Bft) N 0,00 h 0,0 UV-I 11,9 C 11,4 C 0,0 km/h (0 Bft)
06.07.2011 05:00 13,0 C 18,8 C 11,9 C 12,3 C 10,9 C 0,0 C 89 % 94 % 0 % 1008,2 hPa 0,0 l/m 0,0 km/h (0 Bft) N 0,00 h 0,0 UV-I 11,3 C 10,9 C 0,0 km/h (0 Bft)
06.07.2011 06:00 13,8 C 18,6 C 11,9 C 13,0 C 11,5 C 0,0 C 88 % 94 % 0 % 1007,9 hPa 0,0 l/m 0,0 km/h (0 Bft) N 0,00 h 0,0 UV-I 11,8 C 11,5 C 0,0 km/h (0 Bft)
06.07.2011 07:00 15,4 C 18,3 C 13,2 C 17,7 C 17,6 C 2,3 C 87 % 94 % 61 % 1007,9 hPa 0,0 l/m 0,0 km/h (0 Bft) N 0,17 h 0,2 UV-I 13,2 C 17,6 C 0,0 km/h (0 Bft)
06.07.2011 08:00 19,8 C 18,1 C 14,8 C 25,4 C 25,4 C 5,6 C 79 % 95 % 99 % 1007,7 hPa 0,0 l/m 0,0 km/h (0 Bft) N 1,00 h 0,7 UV-I 16,0 C 25,4 C 0,0 km/h (0 Bft)
06.07.2011 09:00 20,4 C 18,0 C 16,9 C 28,0 C 28,0 C 7,7 C 76 % 93 % 100 % 1007,5 hPa 0,0 l/m 0,3 km/h (0 Bft) N 1,00 h 1,3 UV-I 15,9 C 28,0 C 1,2 km/h (1 Bft)
06.07.2011 10:00 21,0 C 18,1 C 19,0 C 29,5 C 29,5 C 8,5 C 73 % 85 % 100 % 1007,1 hPa 0,0 l/m 0,8 km/h (0 Bft) S 1,00 h 1,7 UV-I 16,1 C 29,5 C 1,3 km/h (1 Bft)
06.07.2011 11:00 22,3 C 18,3 C 20,5 C 30,3 C 30,3 C 8,0 C 71 % 80 % 100 % 1006,8 hPa 0,0 l/m 1,2 km/h (1 Bft) SO 1,00 h 2,7 UV-I 16,8 C 30,3 C 1,7 km/h (1 Bft)
06.07.2011 12:00 23,6 C 18,5 C 21,9 C 31,2 C 31,2 C 7,7 C 67 % 76 % 100 % 1006,4 hPa 0,0 l/m 1,4 km/h (1 Bft) SW 1,00 h 3,6 UV-I 17,1 C 31,2 C 1,8 km/h (1 Bft)
06.07.2011 13:00 24,7 C 18,9 C 23,8 C 32,0 C 32,0 C 7,4 C 62 % 69 % 100 % 1005,9 hPa 0,0 l/m 1,9 km/h (1 Bft) SW 1,00 h 3,8 UV-I 16,8 C 32,0 C 2,6 km/h (1 Bft)
06.07.2011 14:00 25,9 C 19,3 C 25,6 C 32,7 C 32,7 C 6,8 C 60 % 65 % 100 % 1005,7 hPa 0,0 l/m 2,0 km/h (1 Bft) S 1,00 h 3,0 UV-I 17,5 C 32,7 C 2,9 km/h (1 Bft)
06.07.2011 15:00 26,9 C 19,6 C 27,5 C 33,7 C 33,7 C 6,8 C 55 % 58 % 100 % 1005,5 hPa 0,0 l/m 1,8 km/h (1 Bft) W-SW 1,00 h 2,0 UV-I 17,2 C 33,7 C 2,0 km/h (1 Bft)
06.07.2011 16:00 26,8 C 20,2 C 26,9 C 32,0 C 32,0 C 5,1 C 50 % 53 % 99 % 1005,5 hPa 0,0 l/m 3,4 km/h (1 Bft) O-NO 1,00 h 1,4 UV-I 15,6 C 32,0 C 1,8 km/h (1 Bft)
06.07.2011 17:00 26,3 C 20,6 C 24,9 C 31,0 C 31,0 C 4,7 C 49 % 54 % 95 % 1005,3 hPa 0,0 l/m 1,7 km/h (1 Bft) O 0,92 h 0,8 UV-I 14,6 C 31,0 C 1,9 km/h (1 Bft)
06.07.2011 18:00 23,1 C 21,1 C 21,1 C 22,9 C 22,0 C 0,1 C 65 % 76 % 4 % 1006,0 hPa 2,1 l/m 3,6 km/h (1 Bft) O-NO 0,00 h 0,1 UV-I 16,1 C 22,0 C 2,2 km/h (1 Bft)
06.07.2011 19:00 22,7 C 21,4 C 19,5 C 24,7 C 24,6 C 2,1 C 77 % 92 % 54 % 1005,7 hPa 0,0 l/m 0,1 km/h (0 Bft) N 0,50 h 0,1 UV-I 18,4 C 24,6 C 0,2 km/h (0 Bft)
06.07.2011 20:00 22,0 C 21,4 C 19,3 C 22,3 C 21,8 C 0,6 C 80 % 93 % 16 % 1005,4 hPa 0,0 l/m 0,2 km/h (0 Bft) W-SW 0,25 h 0,0 UV-I 18,3 C 21,8 C 0,4 km/h (0 Bft)
06.07.2011 21:00 20,6 C 21,4 C 18,6 C 19,9 C 18,6 C 0,0 C 82 % 93 % 0 % 1006,5 hPa 2,7 l/m 0,9 km/h (0 Bft) O-SO 0,00 h 0,0 UV-I 17,5 C 18,6 C 1,4 km/h (1 Bft)
06.07.2011 22:00 18,9 C 21,4 C 17,5 C 18,4 C 17,4 C 0,0 C 88 % 94 % 0 % 1006,9 hPa 2,7 l/m 0,2 km/h (0 Bft) N 0,00 h 0,0 UV-I 16,9 C 17,4 C 0,2 km/h (0 Bft)
06.07.2011 23:00 18,3 C 21,2 C 17,0 C 17,7 C 16,6 C 0,0 C 91 % 94 % 0 % 1006,9 hPa 0,0 l/m 0,1 km/h (0 Bft) N 0,00 h 0,0 UV-I 16,7 C 16,6 C 0,2 km/h (0 Bft)
07.07.2011 00:00 17,7 C 21,2 C 16,5 C 17,1 C 15,9 C 0,0 C 91 % 95 % 0 % 1007,0 hPa 0,0 l/m 0,1 km/h (0 Bft) N 0,00 h 0,0 UV-I 16,2 C 15,9 C 0,1 km/h (0 Bft)
07.07.2011 01:00 17,2 C 21,0 C 15,9 C 16,6 C 15,2 C 0,0 C 91 % 95 % 0 % 1007,0 hPa 0,0 l/m 0,0 km/h (0 Bft) N 0,00 h 0,0 UV-I 15,8 C 15,2 C 0,0 km/h (0 Bft)
07.07.2011 02:00 16,9 C 20,9 C 15,6 C 16,3 C 15,1 C 0,0 C 92 % 95 % 0 % 1007,0 hPa 0,0 l/m 0,0 km/h (0 Bft) N 0,00 h 0,0 UV-I 15,5 C 15,1 C 0,0 km/h (0 Bft)
07.07.2011 03:00 16,6 C 20,7 C 15,4 C 16,1 C 15,1 C 0,0 C 92 % 95 % 0 % 1007,2 hPa 0,0 l/m 0,1 km/h (0 Bft) N 0,00 h 0,1 UV-I 15,2 C 15,1 C 0,2 km/h (0 Bft)
07.07.2011 04:00 16,2 C 20,6 C 15,1 C 15,8 C 14,9 C 0,0 C 92 % 95 % 0 % 1007,7 hPa 0,0 l/m 0,1 km/h (0 Bft) N 0,00 h 0,1 UV-I 14,9 C 14,9 C 0,6 km/h (0 Bft)
07.07.2011 05:00 15,8 C 20,4 C 14,7 C 15,3 C 14,2 C 0,0 C 91 % 95 % 0 % 1007,9 hPa 0,0 l/m 0,0 km/h (0 Bft) N 0,00 h 0,4 UV-I 14,4 C 14,2 C 0,2 km/h (0 Bft)
07.07.2011 06:00 16,5 C 20,3 C 14,5 C 15,8 C 14,3 C 0,0 C 90 % 95 % 0 % 1008,0 hPa 0,0 l/m 0,0 km/h (0 Bft) N 0,00 h 1,2 UV-I 14,8 C 14,3 C 0,0 km/h (0 Bft)
07.07.2011 07:00 18,1 C 20,1 C 15,2 C 22,8 C 22,7 C 4,8 C 87 % 95 % 79 % 1008,4 hPa 0,0 l/m 0,0 km/h (0 Bft) N 0,75 h 1,5 UV-I 15,9 C 22,7 C 0,0 km/h (0 Bft)
07.07.2011 08:00 21,8 C 19,8 C 16,2 C 27,7 C 27,7 C 5,9 C 77 % 96 % 96 % 1008,8 hPa 0,0 l/m 0,2 km/h (0 Bft) W-SW 0,92 h 0,6 UV-I 17,5 C 27,7 C 0,0 km/h (0 Bft)
07.07.2011 09:00 21,6 C 19,7 C 16,8 C 27,6 C 27,6 C 6,1 C 74 % 95 % 100 % 1009,0 hPa 0,0 l/m 0,5 km/h (0 Bft) S 1,00 h 1,3 UV-I 16,8 C 27,6 C 0,9 km/h (0 Bft)
07.07.2011 10:00 21,1 C 19,7 C 17,9 C 27,6 C 27,6 C 6,6 C 76 % 95 % 100 % 1008,6 hPa 0,0 l/m 0,5 km/h (0 Bft) N 1,00 h 1,7 UV-I 16,6 C 27,6 C 0,7 km/h (0 Bft)
07.07.2011 11:00 22,1 C 19,8 C 19,3 C 29,3 C 29,3 C 7,2 C 72 % 94 % 100 % 1008,7 hPa 0,0 l/m 0,9 km/h (0 Bft) W-SW 1,00 h 2,6 UV-I 16,8 C 29,3 C 1,8 km/h (1 Bft)
07.07.2011 12:00 23,3 C 19,9 C 21,4 C 29,5 C 29,5 C 6,2 C 64 % 85 % 100 % 1008,4 hPa 0,0 l/m 1,8 km/h (1 Bft) NO 1,00 h 3,7 UV-I 16,2 C 29,5 C 2,0 km/h (1 Bft)
07.07.2011 13:00 24,4 C 20,1 C 22,6 C 30,9 C 30,9 C 6,5 C 57 % 70 % 100 % 1008,0 hPa 0,0 l/m 1,5 km/h (1 Bft) NW 1,00 h 3,6 UV-I 15,4 C 30,9 C 2,9 km/h (1 Bft)
07.07.2011 14:00 25,2 C 20,3 C 23,9 C 30,9 C 30,9 C 5,7 C 54 % 61 % 100 % 1007,5 hPa 0,0 l/m 2,1 km/h (1 Bft) O-NO 1,00 h 2,9 UV-I 15,1 C 30,9 C 2,8 km/h (1 Bft)
07.07.2011 15:00 25,8 C 20,6 C 25,1 C 30,1 C 30,1 C 4,3 C 52 % 58 % 99 % 1007,2 hPa 0,0 l/m 2,4 km/h (1 Bft) O-NO 0,98 h 1,9 UV-I 15,2 C 30,1 C 3,5 km/h (1 Bft)
07.07.2011 16:00 26,8 C 20,9 C 26,2 C 31,6 C 31,6 C 4,8 C 50 % 54 % 99 % 1006,6 hPa 0,0 l/m 2,5 km/h (1 Bft) O-NO 1,02 h 1,6 UV-I 15,4 C 31,6 C 3,5 km/h (1 Bft)
07.07.2011 17:00 27,3 C 21,1 C 25,8 C 31,3 C 31,3 C 4,0 C 49 % 56 % 97 % 1005,9 hPa 0,0 l/m 3,8 km/h (1 Bft) O-NO 1,00 h 1,0 UV-I 15,6 C 31,3 C 3,5 km/h (1 Bft)
07.07.2011 18:00 27,5 C 21,3 C 25,5 C 31,0 C 31,0 C 3,5 C 49 % 57 % 91 % 1005,6 hPa 0,0 l/m 1,9 km/h (1 Bft) O 0,60 h 0,4 UV-I 16,0 C 31,0 C 1,6 km/h (1 Bft)
07.07.2011 19:00 27,3 C 21,4 C 25,2 C 29,3 C 29,3 C 2,0 C 51 % 57 % 54 % 1004,9 hPa 0,0 l/m 2,8 km/h (1 Bft) O-SO 0,00 h 0,1 UV-I 16,2 C 29,3 C 3,1 km/h (1 Bft)
07.07.2011 20:00 25,7 C 21,4 C 23,9 C 25,7 C 25,2 C 0,2 C 56 % 63 % 6 % 1005,0 hPa 0,0 l/m 2,7 km/h (1 Bft) O-NO 0,00 h 0,0 UV-I 16,2 C 25,2 C 3,4 km/h (1 Bft)
07.07.2011 21:00 23,5 C 21,5 C 22,2 C 23,2 C 22,5 C 0,0 C 63 % 69 % 0 % 1005,0 hPa 0,0 l/m 3,6 km/h (1 Bft) O-NO 0,00 h 0,0 UV-I 16,0 C 22,5 C 3,6 km/h (1 Bft)
07.07.2011 22:00 22,3 C 21,5 C 20,5 C 21,7 C 20,5 C 0,0 C 70 % 77 % 0 % 1004,8 hPa 0,0 l/m 0,9 km/h (0 Bft) SO 0,00 h 0,0 UV-I 16,5 C 20,5 C 0,7 km/h (0 Bft)
07.07.2011 23:00 21,3 C 21,5 C 19,5 C 20,7 C 19,6 C 0,0 C 74 % 82 % 0 % 1004,5 hPa 0,0 l/m 0,2 km/h (0 Bft) S 0,00 h 0,0 UV-I 16,6 C 19,6 C 0,4 km/h (0 Bft)
08.07.2011 00:00 20,2 C 21,8 C 18,5 C 19,4 C 17,9 C 0,0 C 80 % 88 % 0 % 1006,3 hPa 2,1 l/m 4,6 km/h (1 Bft) SO 0,00 h 0,0 UV-I 16,6 C 17,9 C 1,7 km/h (1 Bft)
08.07.2011 01:00 18,7 C 21,8 C 17,4 C 18,2 C 17,2 C 0,0 C 87 % 93 % 0 % 1006,1 hPa 4,8 l/m 1,4 km/h (1 Bft) O 0,00 h 0,0 UV-I 16,5 C 17,2 C 1,4 km/h (1 Bft)
08.07.2011 02:00 17,6 C 21,7 C 17,0 C 17,4 C 17,0 C 0,0 C 91 % 94 % 0 % 1004,5 hPa 3,4 l/m 4,1 km/h (1 Bft) O-SO 0,00 h 0,0 UV-I 16,2 C 17,0 C 7,2 km/h (2 Bft)
08.07.2011 03:00 17,5 C 21,5 C 16,7 C 17,2 C 16,6 C 0,0 C 93 % 94 % 0 % 1004,0 hPa 0,0 l/m 1,4 km/h (1 Bft) N 0,00 h 0,0 UV-I 16,4 C 16,6 C 1,0 km/h (0 Bft)
08.07.2011 04:00 17,5 C 21,4 C 16,5 C 17,0 C 16,1 C 0,0 C 93 % 95 % 0 % 1003,9 hPa 0,0 l/m 0,9 km/h (0 Bft) W-SW 0,00 h 0,0 UV-I 16,4 C 16,1 C 1,3 km/h (1 Bft)
08.07.2011 05:00 17,4 C 21,2 C 16,3 C 17,0 C 16,2 C 0,0 C 93 % 95 % 0 % 1004,8 hPa 0,0 l/m 1,0 km/h (0 Bft) W-SW 0,00 h 0,0 UV-I 16,2 C 16,2 C 1,0 km/h (0 Bft)
08.07.2011 06:00 17,4 C 21,1 C 16,5 C 17,2 C 16,6 C 0,0 C 93 % 95 % 0 % 1006,2 hPa 0,7 l/m 1,9 km/h (1 Bft) S-SW 0,00 h 0,0 UV-I 16,3 C 16,6 C 1,1 km/h (0 Bft)
08.07.2011 07:00 17,5 C 20,9 C 16,6 C 17,3 C 17,0 C 0,0 C 93 % 95 % 0 % 1006,5 hPa 0,0 l/m 0,7 km/h (0 Bft) W-SW 0,00 h 0,0 UV-I 16,3 C 17,0 C 1,3 km/h (1 Bft)
08.07.2011 08:00 17,4 C 20,8 C 16,4 C 17,2 C 16,9 C 0,0 C 93 % 95 % 0 % 1007,1 hPa 0,0 l/m 1,9 km/h (1 Bft) W-SW 0,00 h 0,0 UV-I 16,2 C 16,9 C 2,1 km/h (1 Bft)
08.07.2011 09:00 16,9 C 20,9 C 16,1 C 16,6 C 16,1 C 0,0 C 93 % 95 % 0 % 1008,5 hPa 2,1 l/m 1,5 km/h (1 Bft) S-SO 0,00 h 0,0 UV-I 15,8 C 16,1 C 2,1 km/h (1 Bft)
08.07.2011 10:00 17,0 C 20,7 C 16,1 C 18,2 C 18,1 C 1,3 C 93 % 96 % 30 % 1008,8 hPa 0,0 l/m 2,8 km/h (1 Bft) W-SW 0,17 h 5,3 UV-I 15,9 C 18,1 C 3,3 km/h (1 Bft)
08.07.2011 11:00 18,6 C 20,4 C 16,8 C 22,6 C 22,6 C 4,0 C 92 % 95 % 92 % 1009,0 hPa 0,0 l/m 5,6 km/h (1 Bft) W 0,75 h 2,1 UV-I 17,3 C 22,6 C 7,8 km/h (2 Bft)
08.07.2011 12:00 20,1 C 20,1 C 17,9 C 23,0 C 23,0 C 2,9 C 81 % 94 % 74 % 1009,4 hPa 0,0 l/m 8,3 km/h (2 Bft) W-SW 0,25 h 2,6 UV-I 16,6 C 23,0 C 12,0 km/h (2 Bft)
08.07.2011 13:00 21,5 C 20,2 C 20,0 C 25,2 C 25,2 C 3,7 C 68 % 86 % 93 % 1009,8 hPa 0,0 l/m 6,3 km/h (2 Bft) S 0,83 h 3,3 UV-I 15,3 C 25,2 C 6,8 km/h (2 Bft)
08.07.2011 14:00 22,3 C 20,1 C 22,2 C 25,1 C 25,1 C 2,9 C 63 % 69 % 75 % 1009,7 hPa 0,0 l/m 7,4 km/h (2 Bft) W-SW 0,42 h 3,5 UV-I 14,8 C 25,1 C 10,2 km/h (2 Bft)
08.07.2011 15:00 23,8 C 20,3 C 24,6 C 27,2 C 27,2 C 3,5 C 54 % 58 % 89 % 1009,8 hPa 0,0 l/m 6,8 km/h (2 Bft) W 0,65 h 2,4 UV-I 13,9 C 27,2 C 8,1 km/h (2 Bft)
08.07.2011 16:00 24,0 C 20,5 C 24,0 C 26,4 C 26,4 C 2,5 C 51 % 54 % 65 % 1010,3 hPa 0,0 l/m 7,1 km/h (2 Bft) W-SW 0,23 h 1,4 UV-I 13,1 C 26,4 C 8,2 km/h (2 Bft)
08.07.2011 17:00 24,3 C 20,7 C 23,2 C 26,5 C 26,5 C 2,2 C 51 % 58 % 58 % 1010,5 hPa 0,0 l/m 5,2 km/h (1 Bft) S 0,20 h 0,9 UV-I 13,4 C 26,5 C 7,4 km/h (2 Bft)
08.07.2011 18:00 25,0 C 20,7 C 23,1 C 27,7 C 27,7 C 2,6 C 51 % 60 % 69 % 1010,8 hPa 0,0 l/m 3,0 km/h (1 Bft) W-SW 0,17 h 0,4 UV-I 14,1 C 27,7 C 3,8 km/h (1 Bft)
08.07.2011 19:00 25,4 C 20,8 C 22,4 C 28,3 C 28,3 C 2,9 C 51 % 61 % 77 % 1010,9 hPa 0,0 l/m 1,0 km/h (0 Bft) N 0,58 h 0,1 UV-I 14,3 C 28,3 C 1,3 km/h (1 Bft)
08.07.2011 20:00 23,1 C 20,9 C 20,4 C 23,2 C 22,5 C 0,5 C 60 % 70 % 12 % 1010,9 hPa 0,0 l/m 0,0 km/h (0 Bft) N 0,23 h 0,0 UV-I 14,7 C 22,5 C 0,0 km/h (0 Bft)
08.07.2011 21:00 21,1 C 21,0 C 18,7 C 20,1 C 18,0 C 0,0 C 70 % 80 % 0 % 1011,4 hPa 0,0 l/m 0,0 km/h (0 Bft) N 0,00 h 0,0 UV-I 15,5 C 18,0 C 0,0 km/h (0 Bft)
08.07.2011 22:00 19,3 C 21,1 C 17,2 C 18,0 C 15,4 C 0,0 C 77 % 85 % 0 % 1012,0 hPa 0,0 l/m 0,0 km/h (0 Bft) N 0,00 h 0,0 UV-I 15,1 C 15,4 C 0,0 km/h (0 Bft)
08.07.2011 23:00 18,0 C 21,1 C 16,0 C 16,7 C 14,1 C 0,0 C 80 % 87 % 0 % 1012,3 hPa 0,0 l/m 0,0 km/h (0 Bft) N 0,00 h 0,0 UV-I 14,5 C 14,1 C 0,0 km/h (0 Bft)
09.07.2011 00:00 17,0 C 21,0 C 15,0 C 15,6 C 13,0 C 0,0 C 80 % 88 % 0 % 1012,6 hPa 0,0 l/m 0,0 km/h (0 Bft) N 0,00 h 0,0 UV-I 13,6 C 13,0 C 0,0 km/h (0 Bft)
09.07.2011 01:00 16,1 C 20,9 C 14,4 C 14,9 C 12,5 C 0,0 C 82 % 89 % 0 % 1012,7 hPa 0,0 l/m 0,0 km/h (0 Bft) N 0,00 h 0,0 UV-I 13,0 C 12,5 C 0,0 km/h (0 Bft)
09.07.2011 02:00 15,3 C 20,8 C 13,7 C 14,2 C 12,1 C 0,0 C 83 % 89 % 0 % 1012,9 hPa 0,0 l/m 0,0 km/h (0 Bft) N 0,00 h 0,0 UV-I 12,4 C 12,1 C 0,0 km/h (0 Bft)
09.07.2011 03:00 14,8 C 20,6 C 13,3 C 13,8 C 11,9 C 0,0 C 84 % 90 % 0 % 1012,8 hPa 0,0 l/m 0,0 km/h (0 Bft) N 0,00 h 0,0 UV-I 12,1 C 11,9 C 0,0 km/h (0 Bft)
09.07.2011 04:00 14,4 C 20,5 C 13,1 C 13,5 C 11,6 C 0,0 C 85 % 91 % 0 % 1012,9 hPa 0,0 l/m 0,0 km/h (0 Bft) N 0,00 h 0,0 UV-I 11,9 C 11,6 C 0,0 km/h (0 Bft)
09.07.2011 05:00 14,5 C 20,3 C 13,2 C 13,8 C 12,3 C 0,0 C 86 % 91 % 0 % 1013,1 hPa 0,0 l/m 0,1 km/h (0 Bft) N 0,00 h 0,0 UV-I 12,1 C 12,3 C 0,0 km/h (0 Bft)
09.07.2011 06:00 15,1 C 20,1 C 13,8 C 14,5 C 13,3 C 0,0 C 86 % 92 % 0 % 1013,2 hPa 0,0 l/m 0,0 km/h (0 Bft) N 0,00 h 0,0 UV-I 12,8 C 13,3 C 0,0 km/h (0 Bft)
09.07.2011 07:00 17,6 C 19,8 C 15,3 C 21,3 C 21,1 C 3,8 C 82 % 91 % 72 % 1013,5 hPa 0,0 l/m 0,1 km/h (0 Bft) N 0,58 h 0,0 UV-I 14,5 C 21,1 C 0,3 km/h (0 Bft)
09.07.2011 08:00 22,4 C 19,7 C 17,2 C 28,8 C 28,8 C 6,4 C 69 % 89 % 100 % 1013,3 hPa 0,0 l/m 0,2 km/h (0 Bft) N 1,00 h 1,1 UV-I 16,5 C 28,8 C 0,9 km/h (0 Bft)
09.07.2011 09:00 23,2 C 19,7 C 19,4 C 31,7 C 31,7 C 8,6 C 65 % 83 % 100 % 1013,1 hPa 0,0 l/m 0,8 km/h (0 Bft) SW 1,00 h 1,8 UV-I 16,1 C 31,7 C 3,2 km/h (1 Bft)
09.07.2011 10:00 23,8 C 19,8 C 21,2 C 32,2 C 32,2 C 8,4 C 63 % 76 % 100 % 1013,0 hPa 0,0 l/m 1,5 km/h (1 Bft) O-NO 1,00 h 2,2 UV-I 16,3 C 32,2 C 3,0 km/h (1 Bft)
09.07.2011 11:00 25,0 C 20,0 C 22,7 C 31,2 C 31,2 C 6,2 C 58 % 69 % 100 % 1013,1 hPa 0,0 l/m 3,2 km/h (1 Bft) SW 1,00 h 3,2 UV-I 16,3 C 31,2 C 6,6 km/h (2 Bft)
09.07.2011 12:00 26,2 C 20,2 C 24,0 C 31,7 C 31,7 C 5,5 C 55 % 65 % 100 % 1012,8 hPa 0,0 l/m 3,7 km/h (1 Bft) W-SW 1,00 h 4,8 UV-I 16,6 C 31,7 C 7,0 km/h (2 Bft)
09.07.2011 13:00 27,0 C 20,5 C 25,2 C 31,9 C 31,9 C 4,9 C 53 % 62 % 100 % 1012,7 hPa 0,0 l/m 3,7 km/h (1 Bft) W-SW 1,00 h 4,5 UV-I 16,5 C 31,9 C 5,0 km/h (1 Bft)
09.07.2011 14:00 27,6 C 20,8 C 26,3 C 32,6 C 32,6 C 5,0 C 52 % 60 % 100 % 1012,5 hPa 0,0 l/m 2,7 km/h (1 Bft) O-SO 1,00 h 3,5 UV-I 16,7 C 32,6 C 4,5 km/h (1 Bft)
09.07.2011 15:00 28,5 C 21,1 C 28,3 C 33,5 C 33,5 C 4,9 C 49 % 55 % 100 % 1012,8 hPa 0,0 l/m 3,2 km/h (1 Bft) SW 1,00 h 2,7 UV-I 16,7 C 33,5 C 4,1 km/h (1 Bft)
09.07.2011 16:00 29,0 C 21,6 C 28,1 C 33,9 C 33,9 C 4,9 C 48 % 54 % 100 % 1013,0 hPa 0,0 l/m 2,5 km/h (1 Bft) S 1,00 h 1,8 UV-I 16,7 C 33,9 C 4,8 km/h (1 Bft)
09.07.2011 17:00 29,9 C 21,9 C 28,2 C 33,8 C 33,8 C 4,0 C 44 % 51 % 100 % 1013,0 hPa 0,0 l/m 3,9 km/h (1 Bft) S 1,00 h 1,0 UV-I 16,1 C 33,8 C 5,2 km/h (1 Bft)
09.07.2011 18:00 30,4 C 22,1 C 27,9 C 33,9 C 33,9 C 3,5 C 43 % 52 % 92 % 1013,2 hPa 0,0 l/m 2,6 km/h (1 Bft) W-SW 0,85 h 0,5 UV-I 16,3 C 33,9 C 4,4 km/h (1 Bft)
09.07.2011 19:00 30,2 C 22,2 C 26,8 C 32,0 C 32,0 C 1,9 C 45 % 56 % 49 % 1013,5 hPa 0,0 l/m 2,2 km/h (1 Bft) S 0,00 h 0,1 UV-I 17,0 C 32,0 C 2,6 km/h (1 Bft)
09.07.2011 20:00 27,7 C 22,3 C 24,4 C 27,0 C 25,6 C 0,0 C 54 % 66 % 1 % 1013,5 hPa 0,0 l/m 1,3 km/h (1 Bft) SW 0,00 h 0,0 UV-I 17,6 C 25,6 C 1,4 km/h (1 Bft)
09.07.2011 21:00 24,7 C 22,4 C 21,7 C 23,6 C 21,3 C 0,0 C 63 % 73 % 0 % 1013,6 hPa 0,0 l/m 0,1 km/h (0 Bft) N 0,00 h 0,0 UV-I 17,0 C 21,3 C 0,0 km/h (0 Bft)
09.07.2011 22:00 22,5 C 22,3 C 20,0 C 21,5 C 19,4 C 0,0 C 66 % 77 % 0 % 1013,8 hPa 0,0 l/m 0,1 km/h (0 Bft) N 0,00 h 0,0 UV-I 15,9 C 19,4 C 0,1 km/h (0 Bft)
09.07.2011 23:00 21,2 C 22,3 C 19,0 C 20,2 C 18,4 C 0,0 C 70 % 79 % 0 % 1014,0 hPa 0,0 l/m 0,1 km/h (0 Bft) N 0,00 h 0,1 UV-I 15,5 C 18,4 C 0,0 km/h (0 Bft)
10.07.2011 00:00 20,3 C 22,2 C 18,3 C 19,4 C 17,8 C 0,0 C 75 % 83 % 0 % 1014,3 hPa 0,0 l/m 0,1 km/h (0 Bft) N 0,00 h 1,0 UV-I 15,6 C 17,8 C 0,3 km/h (0 Bft)
10.07.2011 01:00 19,9 C 22,0 C 18,1 C 19,2 C 17,9 C 0,0 C 77 % 85 % 0 % 1014,2 hPa 0,0 l/m 0,2 km/h (0 Bft) N 0,00 h 0,5 UV-I 15,7 C 17,9 C 0,5 km/h (0 Bft)
10.07.2011 02:00 19,4 C 22,2 C 17,6 C 18,6 C 17,1 C 0,0 C 79 % 88 % 0 % 1014,8 hPa 2,1 l/m 1,9 km/h (1 Bft) W-SW 0,00 h 0,3 UV-I 15,7 C 17,1 C 4,4 km/h (1 Bft)
10.07.2011 03:00 18,0 C 22,2 C 16,5 C 17,3 C 16,0 C 0,0 C 86 % 93 % 0 % 1014,6 hPa 0,0 l/m 0,0 km/h (0 Bft) N 0,00 h 0,1 UV-I 15,6 C 16,0 C 0,0 km/h (0 Bft)
10.07.2011 04:00 17,7 C 22,1 C 16,1 C 17,0 C 15,6 C 0,0 C 87 % 94 % 0 % 1014,6 hPa 0,0 l/m 0,0 km/h (0 Bft) N 0,00 h 0,5 UV-I 15,4 C 15,6 C 0,0 km/h (0 Bft)
10.07.2011 05:00 17,5 C 21,9 C 15,8 C 16,7 C 15,2 C 0,0 C 86 % 94 % 0 % 1014,8 hPa 0,0 l/m 0,0 km/h (0 Bft) N 0,00 h 0,6 UV-I 15,2 C 15,2 C 0,0 km/h (0 Bft)
10.07.2011 06:00 17,8 C 21,8 C 15,8 C 17,0 C 15,5 C 0,0 C 86 % 95 % 0 % 1015,0 hPa 0,0 l/m 0,0 km/h (0 Bft) N 0,00 h 1,9 UV-I 15,4 C 15,5 C 0,3 km/h (0 Bft)
10.07.2011 07:00 18,8 C 21,6 C 16,5 C 21,0 C 20,8 C 2,3 C 85 % 95 % 51 % 1015,1 hPa 0,0 l/m 0,2 km/h (0 Bft) W-SW 0,33 h 2,4 UV-I 16,2 C 20,8 C 0,7 km/h (0 Bft)
10.07.2011 08:00 21,7 C 21,3 C 17,3 C 24,5 C 24,5 C 2,9 C 77 % 95 % 69 % 1015,1 hPa 0,0 l/m 3,0 km/h (1 Bft) SW 0,42 h 0,8 UV-I 17,4 C 24,5 C 4,1 km/h (1 Bft)
10.07.2011 09:00 21,5 C 21,2 C 18,2 C 24,8 C 24,8 C 3,2 C 76 % 95 % 84 % 1015,1 hPa 0,0 l/m 2,8 km/h (1 Bft) SW 0,67 h 1,2 UV-I 17,0 C 24,8 C 3,9 km/h (1 Bft)
10.07.2011 10:00 22,0 C 21,0 C 19,5 C 28,0 C 28,0 C 6,1 C 73 % 92 % 100 % 1015,2 hPa 0,0 l/m 3,1 km/h (1 Bft) SW 1,00 h 2,0 UV-I 17,0 C 28,0 C 4,5 km/h (1 Bft)
10.07.2011 11:00 22,6 C 21,0 C 20,4 C 27,0 C 27,0 C 4,4 C 70 % 86 % 95 % 1015,6 hPa 0,0 l/m 1,9 km/h (1 Bft) SW 0,75 h 2,7 UV-I 16,8 C 27,0 C 2,2 km/h (1 Bft)
10.07.2011 12:00 23,5 C 21,1 C 21,9 C 28,4 C 28,4 C 4,9 C 66 % 76 % 100 % 1015,2 hPa 0,0 l/m 2,0 km/h (1 Bft) W 1,00 h 3,5 UV-I 16,7 C 28,4 C 2,0 km/h (1 Bft)
10.07.2011 13:00 24,7 C 21,2 C 23,4 C 30,7 C 30,7 C 6,0 C 61 % 70 % 100 % 1014,7 hPa 0,0 l/m 2,8 km/h (1 Bft) N 1,00 h 4,4 UV-I 16,6 C 30,7 C 3,6 km/h (1 Bft)
10.07.2011 14:00 25,8 C 21,4 C 24,6 C 32,1 C 32,1 C 6,3 C 57 % 65 % 100 % 1014,5 hPa 0,0 l/m 1,9 km/h (1 Bft) O-NO 1,00 h 4,0 UV-I 16,7 C 32,1 C 1,9 km/h (1 Bft)
10.07.2011 15:00 26,0 C 21,6 C 25,5 C 30,6 C 30,6 C 4,6 C 57 % 61 % 94 % 1014,1 hPa 0,0 l/m 1,7 km/h (1 Bft) N-NO 0,75 h 2,1 UV-I 16,7 C 30,6 C 1,7 km/h (1 Bft)
10.07.2011 16:00 26,7 C 22,0 C 26,0 C 31,9 C 31,9 C 5,2 C 55 % 58 % 100 % 1013,7 hPa 0,0 l/m 1,9 km/h (1 Bft) O-NO 1,00 h 1,8 UV-I 16,8 C 31,9 C 3,1 km/h (1 Bft)
10.07.2011 17:00 27,5 C 22,3 C 25,8 C 32,2 C 32,2 C 4,7 C 53 % 59 % 100 % 1013,1 hPa 0,0 l/m 1,5 km/h (1 Bft) O-NO 1,00 h 1,0 UV-I 17,0 C 32,2 C 2,8 km/h (1 Bft)
10.07.2011 18:00 27,3 C 22,5 C 25,3 C 30,6 C 30,6 C 3,3 C 53 % 61 % 79 % 1012,6 hPa 0,0 l/m 0,7 km/h (0 Bft) O-SO 0,67 h 0,4 UV-I 16,9 C 30,6 C 0,4 km/h (0 Bft)
10.07.2011 19:00 25,2 C 22,5 C 23,6 C 25,1 C 24,9 C 0,1 C 62 % 70 % 1 % 1012,0 hPa 0,0 l/m 0,4 km/h (0 Bft) N 0,00 h 0,1 UV-I 17,2 C 24,9 C 0,4 km/h (0 Bft)
10.07.2011 20:00 23,9 C 22,6 C 22,2 C 23,5 C 22,9 C 0,0 C 66 % 75 % 0 % 1011,8 hPa 0,0 l/m 1,0 km/h (0 Bft) O-NO 0,00 h 0,0 UV-I 17,2 C 22,9 C 1,5 km/h (1 Bft)
10.07.2011 21:00 22,8 C 22,6 C 21,2 C 22,2 C 21,0 C 0,0 C 71 % 79 % 0 % 1011,2 hPa 0,0 l/m 1,5 km/h (1 Bft) SW 0,00 h 0,0 UV-I 17,4 C 21,0 C 3,1 km/h (1 Bft)
10.07.2011 22:00 20,1 C 22,9 C 18,2 C 19,4 C 18,0 C 0,0 C 83 % 91 % 0 % 1012,1 hPa 12,4 l/m 8,6 km/h (2 Bft) SW 0,00 h 0,0 UV-I 17,1 C 18,0 C 10,7 km/h (2 Bft)
10.07.2011 23:00 18,9 C 22,9 C 17,5 C 18,4 C 17,5 C 0,0 C 88 % 94 % 0 % 1012,5 hPa 5,5 l/m 1,7 km/h (1 Bft) N-NO 0,00 h 0,0 UV-I 16,8 C 17,5 C 3,1 km/h (1 Bft)
Min-Datum _ 06.07.11 04.07.11 06.07.11 06.07.11 06.07.11 04.07.11 09.07.11 06.07.11 04.07.11 08.07.11 - 05.07.11 - - 04.07.11 06.07.11 06.07.11 04.07.11
_ Min-Zeit 05:30 10:35 06:09 05:30 05:50 00:00 18:00 16:35 00:00 02:50 - 06:35 - - 00:00 05:30 05:50 00:00
Minimum _ 12,7 C 17,5 C 11,6 C 12,1 C 10,8 C 0,0 C 41 % 47 % 0 % 1002,9 hPa - 0,0 km/h (0 Bft) - - 0,0 UV-I 10,9 C 10,8 C 0,0 km/h (0 Bft)
Max-Datum _ 09.07.11 10.07.11 09.07.11 09.07.11 09.07.11 09.07.11 04.07.11 04.07.11 05.07.11 10.07.11 10.07.11 10.07.11 - 09.07.11 08.07.11 07.07.11 09.07.11 08.07.11
_ Max-Zeit 18:40 22:09 15:20 16:50 16:50 09:45 09:09 00:00 14:35 11:10 22:45 22:09 - 09:10 10:50 08:35 16:50 02:35
Maximum _ 30,7 C 23,0 C 28,7 C 34,5 C 34,5 C 9,4 C 94 % 96 % 100 % 1015,7 hPa 12,4 l/m 12,6 km/h
SW (3 Bft)
- 0,17 h 7,0 UV-I 19,4 C 34,5 C 44,0 km/h
O-SO (6 Bft)
Durchschnitt _ 19,5 C 20,0 C 18,1 C 21,2 C 20,7 C 1,9 C 78 % 85 % 37 % 1010,4 hPa #53,6 l/m 1,9 km/h (1 Bft) W-SW #51:25 h 1,4 UV-I 15,1 C 20,7 C 1,7 km/h (1 Bft)
2013 www.wetterstation-wechselburg.de